createdAt,value
2019-01-23T00:02:24.143Z,14.50
2019-01-23T00:04:55.411Z,14.83
2019-01-23T00:07:26.537Z,15.40
2019-01-23T00:09:59.509Z,14.83
2019-01-23T00:12:31.373Z,14.47
2019-01-23T00:15:02.649Z,14.98
2019-01-23T00:17:33.953Z,13.88
2019-01-23T00:20:05.705Z,14.28
2019-01-23T00:22:36.876Z,14.38
2019-01-23T00:25:53.583Z,14.18
2019-01-23T00:28:24.673Z,15.00
2019-01-23T00:30:55.750Z,14.10
2019-01-23T00:33:26.787Z,13.72
2019-01-23T00:35:57.968Z,14.15
2019-01-23T00:38:29.103Z,13.72
2019-01-23T00:41:00.204Z,13.72
2019-01-23T00:43:31.316Z,13.95
2019-01-23T00:46:02.514Z,13.10
2019-01-23T00:48:33.678Z,13.90
2019-01-23T00:51:04.839Z,14.05
2019-01-23T00:53:36.113Z,13.45
2019-01-23T00:56:07.403Z,13.38
2019-01-23T00:58:38.706Z,13.98
2019-01-23T01:01:09.929Z,14.53
2019-01-23T01:03:41.104Z,13.72
2019-01-23T01:06:12.223Z,14.40
2019-01-23T01:08:43.343Z,14.18
2019-01-23T01:11:14.452Z,14.20
2019-01-23T01:13:45.694Z,13.70
2019-01-23T01:16:16.722Z,13.88
2019-01-23T01:18:48.062Z,14.23
2019-01-23T01:21:19.293Z,13.93
2019-01-23T01:23:50.377Z,13.60
2019-01-23T01:26:21.490Z,14.25
2019-01-23T01:29:22.493Z,13.50
2019-01-23T01:31:53.353Z,13.53
2019-01-23T01:34:24.440Z,13.03
2019-01-23T01:36:55.573Z,13.43
2019-01-23T01:39:26.702Z,13.30
2019-01-23T01:41:57.678Z,13.22
2019-01-23T01:44:28.872Z,12.95
2019-01-23T01:47:00.004Z,12.82
2019-01-23T01:49:31.017Z,12.58
2019-01-23T01:52:02.095Z,12.60
2019-01-23T01:54:33.179Z,13.13
2019-01-23T01:57:04.380Z,12.35
2019-01-23T01:59:35.541Z,12.55
2019-01-23T02:02:06.839Z,12.75
2019-01-23T02:04:38.019Z,12.35
2019-01-23T02:07:09.109Z,12.53
2019-01-23T02:09:40.298Z,11.65
2019-01-23T02:12:11.602Z,12.85
2019-01-23T02:14:42.944Z,12.70
2019-01-23T02:17:14.285Z,12.28
2019-01-23T02:19:45.331Z,11.97
2019-01-23T02:22:16.660Z,12.18
2019-01-23T02:24:47.832Z,11.40
2019-01-23T02:27:18.987Z,11.97
2019-01-23T02:29:50.161Z,11.90
2019-01-23T02:32:21.360Z,12.07
2019-01-23T02:34:52.585Z,11.83
2019-01-23T02:37:23.613Z,11.10
2019-01-23T02:39:54.608Z,10.45
2019-01-23T02:42:25.764Z,12.13
2019-01-23T02:44:57.062Z,10.90
2019-01-23T02:47:28.335Z,11.50
2019-01-23T02:49:59.535Z,11.15
2019-01-23T02:52:30.695Z,10.98
2019-01-23T02:55:02.046Z,11.25
2019-01-23T02:57:33.128Z,11.05
2019-01-23T03:00:04.784Z,10.40
2019-01-23T03:02:36.121Z,10.58
2019-01-23T03:05:10.042Z,10.23
2019-01-23T03:07:41.304Z,10.20
2019-01-23T03:10:14.924Z,10.60
2019-01-23T03:12:45.960Z,10.43
2019-01-23T03:15:17.330Z,10.30
2019-01-23T03:17:48.393Z,10.13
2019-01-23T03:20:20.611Z,10.80
2019-01-23T03:22:51.803Z,10.93
2019-01-23T03:25:22.977Z,9.50
2019-01-23T03:27:54.208Z,9.95
2019-01-23T03:30:25.714Z,9.90
2019-01-23T03:32:56.958Z,10.30
2019-01-23T03:35:28.212Z,9.70
2019-01-23T03:37:59.197Z,10.68
2019-01-23T03:40:30.313Z,10.38
2019-01-23T03:43:01.497Z,10.15
2019-01-23T03:45:32.819Z,9.98
2019-01-23T03:48:04.078Z,10.43
2019-01-23T03:50:35.380Z,9.58
2019-01-23T03:53:06.596Z,9.40
2019-01-23T03:55:37.603Z,9.63
2019-01-23T03:58:08.777Z,10.15
2019-01-23T04:00:40.122Z,9.90
2019-01-23T04:03:11.244Z,9.50
2019-01-23T04:05:42.280Z,9.50
2019-01-23T04:08:13.225Z,9.85
2019-01-23T04:10:44.390Z,10.05
2019-01-23T04:13:15.387Z,9.73
2019-01-23T04:15:46.511Z,9.63
2019-01-23T04:18:17.593Z,9.48
2019-01-23T04:20:48.947Z,8.83
2019-01-23T04:23:20.179Z,9.30
2019-01-23T04:25:51.272Z,9.33
2019-01-23T04:28:22.334Z,9.25
2019-01-23T04:30:53.402Z,9.25
2019-01-23T04:33:24.436Z,9.63
2019-01-23T04:35:55.511Z,9.60
2019-01-23T04:38:26.886Z,8.95
2019-01-23T04:40:58.063Z,8.20
2019-01-23T04:43:29.054Z,8.73
2019-01-23T04:46:00.077Z,8.95
2019-01-23T04:48:31.339Z,9.08
2019-01-23T04:51:10.672Z,9.03
2019-01-23T04:53:43.601Z,8.95
2019-01-23T04:56:14.667Z,8.70
2019-01-23T04:58:45.699Z,9.00
2019-01-23T05:01:17.024Z,8.98
2019-01-23T05:03:47.987Z,8.20
2019-01-23T05:06:18.954Z,8.35
2019-01-23T05:08:49.991Z,8.35
2019-01-23T05:11:20.994Z,8.30
2019-01-23T05:13:52.273Z,8.65
2019-01-23T05:16:23.487Z,8.75
2019-01-23T05:18:54.671Z,8.08
2019-01-23T05:21:25.797Z,8.48
2019-01-23T05:23:56.670Z,8.25
2019-01-23T05:26:27.718Z,7.90
2019-01-23T05:28:58.865Z,7.83
2019-01-23T05:31:29.954Z,8.03
2019-01-23T05:34:01.083Z,8.18
2019-01-23T05:36:32.205Z,8.40
2019-01-23T05:39:04.825Z,7.53
2019-01-23T05:41:35.711Z,7.72
2019-01-23T05:44:06.758Z,6.80
2019-01-23T05:46:37.536Z,8.08
2019-01-23T05:49:08.609Z,8.18
2019-01-23T05:51:39.701Z,7.90
2019-01-23T05:54:10.824Z,8.00
2019-01-23T05:56:41.899Z,11.70
2019-01-23T05:59:13.053Z,11.68
2019-01-23T06:01:44.074Z,18.82
2019-01-23T06:04:15.336Z,13.22
2019-01-23T06:06:46.476Z,13.05
2019-01-23T06:09:17.593Z,13.80
2019-01-23T06:11:48.587Z,13.78
2019-01-23T06:14:19.542Z,13.65
2019-01-23T06:16:50.664Z,14.58
2019-01-23T06:19:21.635Z,13.70
2019-01-23T06:21:52.867Z,13.72
2019-01-23T06:24:24.198Z,13.58
2019-01-23T06:26:55.483Z,13.38
2019-01-23T06:29:26.565Z,12.85
2019-01-23T06:31:57.856Z,12.50
2019-01-23T06:34:28.767Z,12.33
2019-01-23T06:36:59.749Z,13.48
2019-01-23T06:39:30.680Z,13.48
2019-01-23T06:42:01.864Z,15.23
2019-01-23T06:44:34.838Z,15.43
2019-01-23T06:47:06.062Z,17.80
2019-01-23T06:49:36.976Z,29.40
2019-01-23T06:52:08.025Z,39.10
2019-01-23T06:54:39.107Z,41.95
2019-01-23T06:57:10.216Z,43.55
2019-01-23T06:59:41.279Z,43.55
2019-01-23T07:02:12.406Z,43.38
2019-01-23T07:04:43.464Z,42.40
2019-01-23T07:07:14.517Z,43.48
2019-01-23T07:09:45.697Z,43.10
2019-01-23T07:12:16.691Z,40.85
2019-01-23T07:14:47.424Z,41.25
2019-01-23T07:17:18.103Z,39.00
2019-01-23T07:19:49.589Z,37.50
2019-01-23T07:22:20.694Z,36.68
2019-01-23T07:24:51.925Z,37.78
2019-01-23T07:27:22.989Z,39.40
2019-01-23T07:29:54.166Z,38.45
2019-01-23T07:32:25.396Z,36.73
2019-01-23T07:34:56.515Z,36.80
2019-01-23T07:37:27.654Z,36.33
2019-01-23T07:39:59.034Z,36.05
2019-01-23T07:42:30.091Z,36.20
2019-01-23T07:45:01.186Z,34.90
2019-01-23T07:47:32.340Z,35.43
2019-01-23T07:50:03.973Z,34.03
2019-01-23T07:52:35.109Z,35.45
2019-01-23T07:55:07.581Z,34.70
2019-01-23T07:57:38.627Z,33.60
2019-01-23T08:00:13.365Z,33.70
2019-01-23T08:02:46.506Z,34.23
2019-01-23T08:05:24.578Z,32.80
2019-01-23T08:07:57.367Z,31.57
2019-01-23T08:10:28.657Z,31.35
2019-01-23T08:12:59.958Z,31.62
2019-01-23T08:15:34.034Z,31.77
2019-01-23T08:18:05.442Z,31.30
2019-01-23T08:20:36.841Z,31.33
2019-01-23T08:23:07.890Z,30.88
2019-01-23T08:25:39.077Z,31.12
2019-01-23T08:28:10.345Z,31.25
2019-01-23T08:30:41.632Z,31.15
2019-01-23T08:33:12.766Z,30.62
2019-01-23T08:35:43.979Z,28.47
2019-01-23T08:38:15.089Z,29.70
2019-01-23T08:40:46.343Z,30.02
2019-01-23T08:43:17.560Z,29.90
2019-01-23T08:45:48.589Z,29.10
2019-01-23T08:48:19.494Z,29.05
2019-01-23T08:50:50.511Z,27.75
2019-01-23T08:53:21.642Z,28.17
2019-01-23T08:55:53.830Z,29.07
2019-01-23T08:58:25.064Z,27.77
2019-01-23T09:00:56.339Z,27.48
2019-01-23T09:03:27.581Z,28.67
2019-01-23T09:05:58.792Z,29.02
2019-01-23T09:08:30.028Z,28.35
2019-01-23T09:11:01.266Z,27.22
2019-01-23T09:13:32.420Z,27.35
2019-01-23T09:16:03.748Z,27.60
2019-01-23T09:18:34.735Z,29.00
2019-01-23T09:21:05.830Z,27.75
2019-01-23T09:23:37.030Z,28.02
2019-01-23T09:26:08.357Z,27.52
2019-01-23T09:28:39.603Z,27.02
2019-01-23T09:31:51.093Z,26.10
2019-01-23T09:35:37.034Z,26.30
2019-01-23T09:38:48.933Z,25.77
2019-01-23T09:41:52.223Z,26.42
2019-01-23T09:45:06.225Z,26.37
2019-01-23T09:47:46.483Z,26.40
2019-01-23T09:50:59.977Z,26.40
2019-01-23T09:54:01.671Z,26.07
2019-01-23T09:56:32.779Z,26.05
2019-01-23T09:59:04.053Z,26.37
2019-01-23T10:01:35.275Z,25.75
2019-01-23T10:04:06.481Z,26.00
2019-01-23T10:06:37.714Z,27.40
2019-01-23T10:09:10.729Z,25.27
2019-01-23T10:11:41.754Z,26.33
2019-01-23T10:14:12.974Z,24.65
2019-01-23T10:16:44.098Z,26.05
2019-01-23T10:19:15.134Z,24.85
2019-01-23T10:21:46.291Z,25.80
2019-01-23T10:24:17.240Z,25.60
2019-01-23T10:26:48.165Z,25.62
2019-01-23T10:29:22.234Z,25.90
2019-01-23T10:31:53.368Z,25.15
2019-01-23T10:34:24.670Z,25.48
2019-01-23T10:36:55.719Z,24.98
2019-01-23T10:39:26.940Z,24.52
2019-01-23T10:41:58.132Z,25.20
2019-01-23T10:44:29.590Z,25.32
2019-01-23T10:47:00.660Z,24.95
2019-01-23T10:49:31.936Z,24.47
2019-01-23T10:52:03.019Z,24.50
2019-01-23T10:54:34.249Z,25.55
2019-01-23T10:57:05.380Z,24.50
2019-01-23T10:59:36.666Z,24.50
2019-01-23T11:02:07.598Z,24.82
2019-01-23T11:04:38.858Z,25.70
2019-01-23T11:07:09.790Z,23.38
2019-01-23T11:09:41.035Z,24.72
2019-01-23T11:12:12.342Z,25.25
2019-01-23T11:14:43.412Z,23.95
2019-01-23T11:17:14.619Z,25.02
2019-01-23T11:19:45.748Z,25.10
2019-01-23T11:22:16.974Z,23.75
2019-01-23T11:24:48.155Z,24.40
2019-01-23T11:27:19.160Z,25.85
2019-01-23T11:29:50.241Z,25.00
2019-01-23T11:32:21.262Z,25.05
2019-01-23T11:34:52.622Z,23.87
2019-01-23T11:37:23.652Z,25.10
2019-01-23T11:39:54.699Z,24.30
2019-01-23T11:42:26.197Z,24.25
2019-01-23T11:44:57.457Z,24.80
2019-01-23T11:47:28.664Z,24.35
2019-01-23T11:50:01.235Z,25.15
2019-01-23T11:52:32.610Z,25.08
2019-01-23T11:55:03.588Z,24.75
2019-01-23T11:57:34.664Z,24.27
2019-01-23T12:00:06.222Z,24.75
2019-01-23T12:02:37.306Z,25.08
2019-01-23T12:05:10.784Z,24.43
2019-01-23T12:07:41.855Z,25.68
2019-01-23T12:10:16.700Z,25.50
2019-01-23T12:12:47.811Z,26.00
2019-01-23T12:15:21.183Z,24.57
2019-01-23T12:17:52.454Z,25.02
2019-01-23T12:20:23.580Z,26.60
2019-01-23T12:22:54.869Z,25.52
2019-01-23T12:25:26.068Z,25.90
2019-01-23T12:27:57.379Z,26.45
2019-01-23T12:30:31.799Z,26.02
2019-01-23T12:33:02.984Z,25.02
2019-01-23T12:35:34.169Z,24.63
2019-01-23T12:38:05.588Z,24.92
2019-01-23T12:40:37.099Z,24.75
2019-01-23T12:43:09.253Z,26.33
2019-01-23T12:45:40.481Z,27.17
2019-01-23T12:48:11.545Z,26.57
2019-01-23T12:50:46.008Z,25.25
2019-01-23T12:53:17.743Z,24.63
2019-01-23T12:55:49.340Z,24.70
2019-01-23T12:58:20.522Z,24.20
2019-01-23T13:00:51.790Z,25.62
2019-01-23T13:03:22.951Z,25.60
2019-01-23T13:05:54.154Z,24.25
2019-01-23T13:08:30.255Z,24.90
2019-01-23T13:11:05.344Z,24.85
2019-01-23T13:13:36.715Z,25.12
2019-01-23T13:16:08.140Z,24.30
2019-01-23T13:18:39.511Z,24.98
2019-01-23T13:21:10.631Z,24.07
2019-01-23T13:23:41.810Z,24.67
2019-01-23T13:26:13.195Z,25.25
2019-01-23T13:28:44.890Z,30.52
2019-01-23T13:31:16.124Z,28.27
2019-01-23T13:33:47.465Z,26.77
2019-01-23T13:36:19.736Z,27.20
2019-01-23T13:38:51.721Z,26.68
2019-01-23T13:41:24.047Z,27.80
2019-01-23T13:43:55.641Z,26.85
2019-01-23T13:46:26.617Z,27.67
2019-01-23T13:48:58.292Z,26.57
2019-01-23T13:51:29.526Z,26.70
2019-01-23T13:54:00.812Z,27.25
2019-01-23T13:56:32.220Z,26.65
2019-01-23T13:59:03.225Z,27.07
2019-01-23T14:01:34.405Z,27.58
2019-01-23T14:04:05.971Z,27.00
2019-01-23T14:06:37.253Z,26.35
2019-01-23T14:09:09.700Z,27.37
2019-01-23T14:11:41.221Z,27.70
2019-01-23T14:14:12.688Z,28.07
2019-01-23T14:16:44.381Z,26.65
2019-01-23T14:19:16.031Z,27.65
2019-01-23T14:21:47.631Z,27.42
2019-01-23T14:24:19.379Z,27.42
2019-01-23T14:26:50.820Z,25.92
2019-01-23T14:29:21.994Z,25.92
2019-01-23T14:31:53.054Z,28.25
2019-01-23T14:34:25.661Z,25.92
2019-01-23T14:36:56.681Z,26.70
2019-01-23T14:39:28.553Z,27.52
2019-01-23T14:42:00.463Z,25.52
2019-01-23T14:44:31.661Z,26.02
2019-01-23T14:47:03.503Z,27.40
2019-01-23T14:49:35.655Z,26.90
2019-01-23T14:52:07.032Z,26.27
2019-01-23T14:54:39.769Z,26.57
2019-01-23T14:57:11.578Z,24.65
2019-01-23T14:59:42.541Z,24.72
2019-01-23T15:02:13.654Z,24.92
2019-01-23T15:04:44.741Z,25.55
2019-01-23T15:07:16.015Z,24.87
2019-01-23T15:09:47.146Z,25.90
2019-01-23T15:12:18.281Z,24.65
2019-01-23T15:14:49.542Z,23.80
2019-01-23T15:17:21.020Z,25.30
2019-01-23T15:19:52.213Z,24.55
2019-01-23T15:22:23.350Z,23.52
2019-01-23T15:24:54.604Z,24.72
2019-01-23T15:27:25.795Z,23.98
2019-01-23T15:29:58.156Z,23.10
2019-01-23T15:32:29.431Z,23.75
2019-01-23T15:35:00.797Z,24.07
2019-01-23T15:37:31.959Z,23.77
2019-01-23T15:40:03.146Z,23.30
2019-01-23T15:42:34.432Z,22.77
2019-01-23T15:45:06.168Z,22.45
2019-01-23T15:47:37.477Z,24.12
2019-01-23T15:50:11.500Z,23.30
2019-01-23T15:52:42.758Z,24.25
2019-01-23T15:55:15.671Z,23.90
2019-01-23T15:57:46.782Z,23.83
2019-01-23T16:00:27.160Z,23.83
2019-01-23T16:02:58.297Z,28.10
2019-01-23T16:05:29.523Z,25.55
2019-01-23T16:08:00.823Z,25.45
2019-01-23T16:10:32.185Z,27.07
2019-01-23T16:13:03.416Z,25.02
2019-01-23T16:15:34.671Z,23.42
2019-01-23T16:18:05.763Z,24.75
2019-01-23T16:20:36.909Z,24.77
2019-01-23T16:23:08.319Z,24.45
2019-01-23T16:25:39.394Z,25.05
2019-01-23T16:28:10.892Z,24.70
2019-01-23T16:30:42.268Z,25.37
2019-01-23T16:33:13.568Z,25.10
2019-01-23T16:35:44.692Z,24.32
2019-01-23T16:38:16.044Z,24.92
2019-01-23T16:40:47.118Z,24.50
2019-01-23T16:43:18.347Z,23.18
2019-01-23T16:45:50.416Z,24.87
2019-01-23T16:48:22.715Z,23.87
2019-01-23T16:50:54.041Z,23.52
2019-01-23T16:53:27.089Z,24.47
2019-01-23T16:55:59.088Z,23.90
2019-01-23T16:58:30.437Z,23.22
2019-01-23T17:01:01.482Z,23.10
2019-01-23T17:03:32.682Z,22.60
2019-01-23T17:06:03.718Z,22.35
2019-01-23T17:08:34.656Z,22.30
2019-01-23T17:11:05.554Z,22.75
2019-01-23T17:13:36.728Z,21.60
2019-01-23T17:16:07.821Z,21.10
2019-01-23T17:18:38.867Z,21.85
2019-01-23T17:21:09.851Z,21.30
2019-01-23T17:23:41.130Z,21.17
2019-01-23T17:26:12.186Z,20.82
2019-01-23T17:28:43.223Z,20.88
2019-01-23T17:31:17.241Z,20.57
2019-01-23T17:33:48.396Z,20.68
2019-01-23T17:36:19.641Z,20.80
2019-01-23T17:38:50.912Z,20.43
2019-01-23T17:41:21.992Z,20.85
2019-01-23T17:43:53.510Z,20.37
2019-01-23T17:46:24.959Z,20.43
2019-01-23T17:49:02.951Z,19.55
2019-01-23T17:51:34.538Z,20.52
2019-01-23T17:54:05.903Z,19.87
2019-01-23T17:56:36.851Z,19.92
2019-01-23T17:59:08.041Z,21.65
2019-01-23T18:01:39.106Z,21.07
2019-01-23T18:04:10.376Z,21.80
2019-01-23T18:06:41.164Z,20.60
2019-01-23T18:09:12.283Z,45.38
2019-01-23T18:11:43.356Z,48.58
2019-01-23T18:14:14.486Z,68.90
2019-01-23T18:16:45.454Z,203.10
2019-01-23T18:19:16.467Z,147.75
2019-01-23T18:21:47.733Z,147.90
2019-01-23T18:24:19.155Z,104.30
2019-01-23T18:26:50.257Z,59.03
2019-01-23T18:29:21.754Z,45.65
2019-01-23T18:32:06.405Z,84.10
2019-01-23T18:35:37.183Z,53.85
2019-01-23T18:38:57.161Z,51.58
2019-01-23T18:42:06.698Z,49.55
2019-01-23T18:45:43.391Z,46.98
2019-01-23T18:49:14.445Z,45.63
2019-01-23T18:52:10.088Z,44.63
2019-01-23T18:54:41.118Z,43.50
2019-01-23T18:57:16.969Z,42.17
2019-01-23T18:59:48.171Z,40.60
2019-01-23T19:02:25.382Z,41.68
2019-01-23T19:04:57.061Z,39.80
2019-01-23T19:07:28.166Z,38.25
2019-01-23T19:09:59.334Z,37.28
2019-01-23T19:12:30.471Z,37.00
2019-01-23T19:15:01.790Z,34.67
2019-01-23T19:17:33.192Z,34.78
2019-01-23T19:20:04.460Z,33.90
2019-01-23T19:22:35.788Z,32.00
2019-01-23T19:25:07.340Z,31.73
2019-01-23T19:27:38.709Z,31.55
2019-01-23T19:30:12.076Z,31.90
2019-01-23T19:32:43.394Z,29.30
2019-01-23T19:35:14.552Z,28.23
2019-01-23T19:37:45.831Z,27.25
2019-01-23T19:40:17.002Z,28.62
2019-01-23T19:42:48.026Z,27.87
2019-01-23T19:45:22.016Z,27.40
2019-01-23T19:47:53.004Z,27.42
2019-01-23T19:50:23.706Z,26.70
2019-01-23T19:52:54.591Z,25.57
2019-01-23T19:55:25.720Z,26.15
2019-01-23T19:57:56.684Z,25.77
2019-01-23T20:00:27.997Z,25.43
2019-01-23T20:02:59.230Z,24.87
2019-01-23T20:05:32.252Z,23.92
2019-01-23T20:08:03.236Z,24.72
2019-01-23T20:10:34.618Z,23.98
2019-01-23T20:13:05.794Z,24.65
2019-01-23T20:15:37.142Z,23.85
2019-01-23T20:18:10.337Z,23.38
2019-01-23T20:20:41.526Z,24.15
2019-01-23T20:23:12.669Z,24.00
2019-01-23T20:25:43.699Z,22.98
2019-01-23T20:28:15.985Z,23.50
2019-01-23T20:30:47.437Z,23.27
2019-01-23T20:33:18.699Z,23.95
2019-01-23T20:35:49.858Z,23.67
2019-01-23T20:38:21.050Z,24.60
2019-01-23T20:40:52.182Z,23.80
2019-01-23T20:43:23.077Z,23.18
2019-01-23T20:45:54.146Z,23.30
2019-01-23T20:48:25.255Z,23.73
2019-01-23T20:50:56.430Z,24.07
2019-01-23T20:53:27.710Z,22.73
2019-01-23T20:55:58.930Z,22.32
2019-01-23T20:58:30.140Z,22.55
2019-01-23T21:01:01.521Z,23.30
2019-01-23T21:03:34.991Z,98.62
2019-01-23T21:06:05.749Z,125.40
2019-01-23T21:08:36.885Z,85.62
2019-01-23T21:11:08.273Z,82.33
2019-01-23T21:13:39.514Z,80.22
2019-01-23T21:16:10.959Z,74.10
2019-01-23T21:18:42.143Z,73.20
2019-01-23T21:21:13.197Z,69.95
2019-01-23T21:23:44.155Z,68.52
2019-01-23T21:26:15.282Z,69.62
2019-01-23T21:28:46.311Z,67.90
2019-01-23T21:31:17.318Z,66.50
2019-01-23T21:33:48.573Z,65.70
2019-01-23T21:36:19.544Z,62.33
2019-01-23T21:38:50.770Z,62.83
2019-01-23T21:41:21.963Z,63.33
2019-01-23T21:43:53.199Z,60.50
2019-01-23T21:46:24.437Z,60.43
2019-01-23T21:48:55.605Z,61.92
2019-01-23T21:51:26.750Z,54.27
2019-01-23T21:53:58.235Z,54.42
2019-01-23T21:56:29.527Z,53.92
2019-01-23T21:59:00.733Z,53.45
2019-01-23T22:01:32.016Z,52.60
2019-01-23T22:04:03.027Z,53.30
2019-01-23T22:06:34.216Z,51.70
2019-01-23T22:09:07.481Z,52.03
2019-01-23T22:11:43.498Z,50.10
2019-01-23T22:14:11.643Z,51.18
2019-01-23T22:16:42.961Z,49.70
2019-01-23T22:19:14.362Z,41.33
2019-01-23T22:21:45.435Z,33.55
2019-01-23T22:24:16.470Z,33.55
2019-01-23T22:26:47.570Z,30.02
2019-01-23T22:29:18.592Z,29.23
2019-01-23T22:31:50.228Z,25.60
2019-01-23T22:34:21.560Z,25.72
2019-01-23T22:36:53.127Z,26.00
2019-01-23T22:39:24.931Z,25.00
2019-01-23T22:41:56.521Z,24.67
2019-01-23T22:44:28.131Z,24.75
2019-01-23T22:46:59.537Z,24.55
2019-01-23T22:49:31.175Z,23.60
2019-01-23T22:52:02.833Z,23.22
2019-01-23T22:54:34.772Z,21.87
2019-01-23T22:57:06.536Z,20.70
2019-01-23T22:59:37.937Z,21.52
2019-01-23T23:02:09.394Z,20.70
2019-01-23T23:04:43.341Z,21.33
2019-01-23T23:07:15.166Z,20.62
2019-01-23T23:09:47.643Z,20.55
2019-01-23T23:12:18.826Z,21.17
2019-01-23T23:14:50.042Z,20.55
2019-01-23T23:17:21.113Z,20.57
2019-01-23T23:19:52.047Z,20.05
2019-01-23T23:22:23.225Z,19.80
2019-01-23T23:24:54.583Z,19.98
2019-01-23T23:27:25.809Z,19.90
2019-01-23T23:29:58.312Z,19.75
2019-01-23T23:32:29.330Z,19.87
2019-01-23T23:35:00.388Z,19.42
2019-01-23T23:37:31.502Z,19.52
2019-01-23T23:40:02.450Z,18.92
2019-01-23T23:42:33.407Z,19.07
2019-01-23T23:45:04.618Z,19.67
2019-01-23T23:47:35.782Z,19.90
2019-01-23T23:50:08.507Z,18.85
2019-01-23T23:52:39.681Z,18.35
2019-01-23T23:55:11.159Z,17.92
2019-01-23T23:57:42.302Z,17.92
